UAL941 EGLL-KEWR
Flight info
| Callsign | UAL941 |
|---|---|
| Flight time | 5h 9m |
| Altitude | 34000 |
| Route | CPT L9 BUCGO DCT FELCA DCT OFSOX DCT BANBA DCT DINIM/M079F350 DCT 52N020W 52N030W 52N040W 51N050W DCT ALLRY/N0462F360 N468A TUSKY Q475 COPLY DCT BOS DCT NELIE FLOSI4 |
| Aircraft | B763/H-SDE3FGHIM3RWXY/LB1 |
Departure
| Time | 2026-05-04 16:51 |
|---|---|
| Airport | London Heathrow Airport (EGLL) |
Arrival
| Time | 2026-05-04 22:00 |
|---|---|
| Airport | Newark Liberty International Airport (KEWR) |
| Time | Latitude | Longitude | Altitude | Speed | Heading |
|---|---|---|---|---|---|
| 2026-05-04 16:35 | 51.47418 | -0.44429 | 97 ft | 0 kts | 90° |
| 2026-05-04 16:42 | 51.47418 | -0.44443 | 97 ft | 2 kts | 90° |
| 2026-05-04 16:43 | 51.47410 | -0.44503 | 97 ft | 3 kts | 63° |
| 2026-05-04 16:43 | 51.47383 | -0.44551 | 97 ft | 3 kts | 34° |
| 2026-05-04 16:43 | 51.47377 | -0.44558 | 97 ft | 0 kts | 30° |
| 2026-05-04 16:46 | 51.47500 | -0.44468 | 97 ft | 9 kts | 88° |
| 2026-05-04 16:46 | 51.47502 | -0.44287 | 97 ft | 13 kts | 89° |
| 2026-05-04 16:47 | 51.47500 | -0.43853 | 97 ft | 17 kts | 94° |
| 2026-05-04 16:47 | 51.47458 | -0.43715 | 97 ft | 2 kts | 104° |
| 2026-05-04 16:48 | 51.47449 | -0.43443 | 98 ft | 12 kts | 82° |
| 2026-05-04 16:48 | 51.47510 | -0.43386 | 97 ft | 12 kts | 6° |
| 2026-05-04 16:49 | 51.47728 | -0.43381 | 97 ft | 12 kts | 1° |
| 2026-05-04 16:49 | 51.47761 | -0.43430 | 97 ft | 0 kts | 274° |
| 2026-05-04 16:50 | 51.47764 | -0.44076 | 98 ft | 68 kts | 270° |
| 2026-05-04 16:50 | 51.47753 | -0.46402 | 98 ft | 143 kts | 272° |
| 2026-05-04 16:51 | 51.47699 | -0.50200 | 646 ft | 176 kts | 266° |
| 2026-05-04 16:51 | 51.47595 | -0.52177 | 1233 ft | 180 kts | 267° |
| 2026-05-04 16:51 | 51.47306 | -0.56437 | 1927 ft | 221 kts | 259° |
| 2026-05-04 16:52 | 51.46392 | -0.61839 | 2883 ft | 260 kts | 254° |
| 2026-05-04 16:52 | 51.45908 | -0.64659 | 3733 ft | 266 kts | 258° |
| 2026-05-04 16:53 | 51.45576 | -0.70629 | 5468 ft | 272 kts | 268° |
| 2026-05-04 16:53 | 51.45341 | -0.79817 | 5994 ft | 275 kts | 269° |
| 2026-05-04 16:54 | 51.45321 | -0.82889 | 6001 ft | 277 kts | 269° |
| 2026-05-04 16:55 | 51.46106 | -0.95354 | 9266 ft | 287 kts | 282° |
| 2026-05-04 16:55 | 51.46875 | -1.01681 | 10895 ft | 294 kts | 279° |
| 2026-05-04 16:56 | 51.47609 | -1.08265 | 12348 ft | 308 kts | 279° |
| 2026-05-04 16:56 | 51.48822 | -1.18993 | 13854 ft | 347 kts | 279° |
| 2026-05-04 16:57 | 51.49427 | -1.22825 | 14319 ft | 361 kts | 288° |
| 2026-05-04 16:57 | 51.50723 | -1.30829 | 15293 ft | 381 kts | 273° |
| 2026-05-04 16:58 | 51.51532 | -1.66397 | 20732 ft | 411 kts | 270° |
| 2026-05-04 16:58 | 51.51862 | -1.85069 | 23083 ft | 425 kts | 269° |
| 2026-05-04 16:59 | 51.52461 | -2.24239 | 27089 ft | 452 kts | 269° |
| 2026-05-04 17:00 | 51.53251 | -2.97983 | 33662 ft | 458 kts | 270° |
| 2026-05-04 17:00 | 51.53443 | -3.28632 | 35724 ft | 458 kts | 270° |
| 2026-05-04 17:01 | 51.53543 | -3.54449 | 35997 ft | 459 kts | 270° |
| 2026-05-04 17:02 | 51.53478 | -4.36621 | 35998 ft | 461 kts | 269° |
| 2026-05-04 17:03 | 51.53045 | -4.98896 | 36003 ft | 464 kts | 269° |
| 2026-05-04 17:03 | 51.52280 | -5.61235 | 36018 ft | 469 kts | 269° |
| 2026-05-04 17:04 | 51.50726 | -6.45226 | 36062 ft | 472 kts | 269° |
| 2026-05-04 17:05 | 51.48759 | -7.22547 | 36077 ft | 474 kts | 269° |
| 2026-05-04 17:06 | 51.46754 | -7.86201 | 36078 ft | 476 kts | 269° |
| 2026-05-04 17:07 | 51.44682 | -8.42723 | 36079 ft | 476 kts | 268° |
| 2026-05-04 17:07 | 51.42641 | -8.92196 | 36093 ft | 473 kts | 268° |
| 2026-05-04 17:08 | 51.39707 | -9.55976 | 36105 ft | 496 kts | 268° |
| 2026-05-04 17:09 | 51.37479 | -9.99829 | 36130 ft | 493 kts | 268° |
| 2026-05-04 17:09 | 51.35100 | -10.43374 | 36129 ft | 492 kts | 267° |
| 2026-05-04 17:10 | 51.28423 | -11.52281 | 36123 ft | 490 kts | 266° |
| 2026-05-04 17:11 | 51.25501 | -11.95255 | 36121 ft | 489 kts | 266° |
| 2026-05-04 17:12 | 51.20799 | -12.59862 | 36119 ft | 487 kts | 265° |
| 2026-05-04 17:13 | 51.12206 | -13.66673 | 36117 ft | 484 kts | 264° |
| 2026-05-04 17:14 | 51.04697 | -14.50893 | 36115 ft | 480 kts | 263° |
| 2026-05-04 17:15 | 51.03220 | -15.13060 | 36123 ft | 470 kts | 291° |
| 2026-05-04 17:16 | 51.20376 | -15.90942 | 36120 ft | 465 kts | 290° |
| 2026-05-04 17:17 | 51.29379 | -16.32952 | 36122 ft | 462 kts | 289° |
| 2026-05-04 17:18 | 51.33472 | -16.52352 | 36122 ft | 461 kts | 289° |
| 2026-05-04 17:19 | 51.37545 | -16.71846 | 36126 ft | 462 kts | 289° |
| 2026-05-04 17:20 | 51.41575 | -16.91329 | 36126 ft | 461 kts | 289° |
| 2026-05-04 17:20 | 51.44570 | -17.05934 | 36127 ft | 460 kts | 289° |
| 2026-05-04 17:21 | 51.48533 | -17.25436 | 36128 ft | 459 kts | 288° |
| 2026-05-04 17:22 | 51.50500 | -17.35186 | 36129 ft | 458 kts | 288° |
| 2026-05-04 17:23 | 51.54384 | -17.54591 | 36129 ft | 456 kts | 288° |
| 2026-05-04 17:24 | 51.57277 | -17.69178 | 36130 ft | 456 kts | 287° |
| 2026-05-04 17:25 | 51.61100 | -17.88626 | 36131 ft | 455 kts | 287° |
| 2026-05-04 17:26 | 51.64867 | -18.07996 | 36131 ft | 454 kts | 287° |
| 2026-05-04 17:27 | 51.69531 | -18.32273 | 36132 ft | 454 kts | 287° |
| 2026-05-04 17:28 | 51.73234 | -18.51780 | 36133 ft | 454 kts | 287° |
| 2026-05-04 17:29 | 51.78723 | -18.81094 | 36134 ft | 455 kts | 287° |
| 2026-05-04 17:31 | 51.83234 | -19.05566 | 36135 ft | 455 kts | 287° |
| 2026-05-04 17:32 | 51.87700 | -19.30139 | 36137 ft | 455 kts | 286° |
| 2026-05-04 17:33 | 51.91228 | -19.49821 | 36139 ft | 455 kts | 286° |
| 2026-05-04 17:34 | 51.94708 | -19.69481 | 36138 ft | 454 kts | 286° |
| 2026-05-04 17:35 | 51.98996 | -19.94103 | 36140 ft | 454 kts | 285° |
| 2026-05-04 17:36 | 52.00190 | -20.04169 | 36143 ft | 455 kts | 276° |
| 2026-05-04 17:36 | 52.00719 | -20.14414 | 36141 ft | 455 kts | 275° |
| 2026-05-04 17:37 | 52.01152 | -20.24652 | 36141 ft | 455 kts | 274° |
| 2026-05-04 17:37 | 52.01567 | -20.34923 | 36149 ft | 455 kts | 274° |
| 2026-05-04 17:38 | 52.01969 | -20.45114 | 36154 ft | 455 kts | 274° |
| 2026-05-04 17:38 | 52.02365 | -20.55390 | 36155 ft | 454 kts | 274° |
| 2026-05-04 17:39 | 52.02940 | -20.70747 | 36156 ft | 454 kts | 274° |
| 2026-05-04 17:39 | 52.03312 | -20.80991 | 36157 ft | 454 kts | 274° |
| 2026-05-04 17:40 | 52.03674 | -20.91179 | 36160 ft | 454 kts | 274° |
| 2026-05-04 17:40 | 52.04027 | -21.01405 | 36176 ft | 453 kts | 274° |
| 2026-05-04 17:41 | 52.04372 | -21.11637 | 36180 ft | 453 kts | 274° |
| 2026-05-04 17:41 | 52.04706 | -21.21822 | 36182 ft | 453 kts | 274° |
| 2026-05-04 17:42 | 52.05033 | -21.32053 | 36183 ft | 453 kts | 274° |
| 2026-05-04 17:42 | 52.05351 | -21.42290 | 36183 ft | 453 kts | 274° |
| 2026-05-04 17:43 | 52.05660 | -21.52528 | 36184 ft | 454 kts | 274° |
| 2026-05-04 17:43 | 52.05961 | -21.62785 | 36185 ft | 454 kts | 273° |
| 2026-05-04 17:44 | 52.06251 | -21.72973 | 36186 ft | 454 kts | 273° |
| 2026-05-04 17:44 | 52.06534 | -21.83243 | 36187 ft | 454 kts | 273° |
| 2026-05-04 17:45 | 52.06808 | -21.93500 | 36187 ft | 454 kts | 273° |
| 2026-05-04 17:45 | 52.07073 | -22.03767 | 36189 ft | 454 kts | 273° |
| 2026-05-04 17:46 | 52.07329 | -22.14017 | 36189 ft | 454 kts | 273° |
| 2026-05-04 17:46 | 52.07575 | -22.24267 | 36190 ft | 454 kts | 273° |
| 2026-05-04 17:47 | 52.07813 | -22.34523 | 36190 ft | 453 kts | 273° |
| 2026-05-04 17:47 | 52.08040 | -22.44724 | 36191 ft | 453 kts | 273° |
| 2026-05-04 17:48 | 52.08260 | -22.54954 | 36192 ft | 452 kts | 273° |
| 2026-05-04 17:48 | 52.08435 | -22.63470 | 36194 ft | 452 kts | 273° |
| 2026-05-04 17:49 | 52.08637 | -22.73676 | 36198 ft | 451 kts | 272° |
| 2026-05-04 17:49 | 52.08830 | -22.83874 | 36200 ft | 451 kts | 272° |
| 2026-05-04 17:50 | 52.09013 | -22.94006 | 36201 ft | 450 kts | 272° |
| 2026-05-04 17:50 | 52.09188 | -23.04176 | 36201 ft | 450 kts | 272° |
| 2026-05-04 17:51 | 52.09354 | -23.14332 | 36203 ft | 449 kts | 272° |
| 2026-05-04 17:51 | 52.09511 | -23.24493 | 36203 ft | 449 kts | 272° |
| 2026-05-04 17:52 | 52.09659 | -23.34653 | 36204 ft | 448 kts | 272° |
| 2026-05-04 17:52 | 52.09797 | -23.44781 | 36204 ft | 448 kts | 272° |
| 2026-05-04 17:53 | 52.09927 | -23.54911 | 36205 ft | 448 kts | 272° |
| 2026-05-04 17:53 | 52.10049 | -23.65036 | 36209 ft | 447 kts | 272° |
| 2026-05-04 17:54 | 52.10161 | -23.75097 | 36211 ft | 447 kts | 272° |
| 2026-05-04 17:54 | 52.10264 | -23.85224 | 36212 ft | 447 kts | 272° |
| 2026-05-04 17:55 | 52.10359 | -23.95347 | 36213 ft | 447 kts | 272° |
| 2026-05-04 17:55 | 52.10446 | -24.05489 | 36213 ft | 447 kts | 272° |
| 2026-05-04 17:56 | 52.10524 | -24.15605 | 36214 ft | 447 kts | 272° |
| 2026-05-04 17:56 | 52.10593 | -24.25740 | 36214 ft | 447 kts | 272° |
| 2026-05-04 17:57 | 52.10653 | -24.35804 | 36216 ft | 447 kts | 272° |
| 2026-05-04 17:57 | 52.10704 | -24.45943 | 36238 ft | 447 kts | 272° |
| 2026-05-04 17:58 | 52.10747 | -24.56057 | 36243 ft | 447 kts | 271° |
| 2026-05-04 17:58 | 52.10781 | -24.66160 | 36244 ft | 447 kts | 271° |
| 2026-05-04 17:59 | 52.10806 | -24.76267 | 36245 ft | 446 kts | 271° |
| 2026-05-04 18:00 | 52.10827 | -24.91349 | 36254 ft | 446 kts | 271° |
| 2026-05-04 18:00 | 52.10831 | -25.01481 | 36272 ft | 446 kts | 271° |
| 2026-05-04 18:01 | 52.10826 | -25.11576 | 36274 ft | 446 kts | 270° |
| 2026-05-04 18:01 | 52.10812 | -25.21620 | 36283 ft | 446 kts | 270° |
| 2026-05-04 18:02 | 52.10774 | -25.36781 | 36321 ft | 447 kts | 270° |
| 2026-05-04 18:02 | 52.10738 | -25.46880 | 36323 ft | 446 kts | 270° |
| 2026-05-04 18:03 | 52.10694 | -25.56984 | 36323 ft | 446 kts | 270° |
| 2026-05-04 18:03 | 52.10640 | -25.67085 | 36323 ft | 446 kts | 270° |
| 2026-05-04 18:04 | 52.10578 | -25.77140 | 36326 ft | 446 kts | 270° |
| 2026-05-04 18:05 | 52.10468 | -25.92292 | 36328 ft | 446 kts | 269° |
| 2026-05-04 18:05 | 52.10383 | -26.02406 | 36328 ft | 446 kts | 269° |
| 2026-05-04 18:06 | 52.10240 | -26.17562 | 36328 ft | 446 kts | 269° |
| 2026-05-04 18:06 | 52.10134 | -26.27679 | 36328 ft | 446 kts | 269° |
| 2026-05-04 18:07 | 52.10020 | -26.37707 | 36329 ft | 446 kts | 269° |
| 2026-05-04 18:07 | 52.09896 | -26.47800 | 36329 ft | 445 kts | 269° |
| 2026-05-04 18:08 | 52.09764 | -26.57890 | 36341 ft | 445 kts | 269° |
| 2026-05-04 18:08 | 52.09623 | -26.67957 | 36345 ft | 445 kts | 269° |
| 2026-05-04 18:09 | 52.09316 | -26.88051 | 36344 ft | 444 kts | 269° |
| 2026-05-04 18:10 | 52.09149 | -26.98116 | 36345 ft | 444 kts | 269° |
| 2026-05-04 18:10 | 52.08974 | -27.08109 | 36358 ft | 444 kts | 268° |
| 2026-05-04 18:11 | 52.08790 | -27.18168 | 36363 ft | 444 kts | 268° |
| 2026-05-04 18:11 | 52.08598 | -27.28191 | 36366 ft | 444 kts | 268° |
| 2026-05-04 18:12 | 52.08395 | -27.38262 | 36366 ft | 444 kts | 268° |
| 2026-05-04 18:12 | 52.08185 | -27.48325 | 36366 ft | 444 kts | 268° |
| 2026-05-04 18:13 | 52.07967 | -27.58322 | 36366 ft | 443 kts | 268° |
| 2026-05-04 18:14 | 52.07622 | -27.73363 | 36366 ft | 443 kts | 268° |
| 2026-05-04 18:14 | 52.07382 | -27.83365 | 36366 ft | 443 kts | 268° |
| 2026-05-04 18:15 | 52.06875 | -28.03408 | 36366 ft | 443 kts | 268° |
| 2026-05-04 18:16 | 52.06609 | -28.13407 | 36366 ft | 443 kts | 268° |
| 2026-05-04 18:16 | 52.06334 | -28.23429 | 36367 ft | 443 kts | 268° |
| 2026-05-04 18:17 | 52.05907 | -28.38386 | 36367 ft | 443 kts | 267° |
| 2026-05-04 18:18 | 52.05457 | -28.53400 | 36367 ft | 443 kts | 267° |
| 2026-05-04 18:18 | 52.05147 | -28.63395 | 36367 ft | 442 kts | 267° |
| 2026-05-04 18:19 | 52.04668 | -28.78347 | 36367 ft | 442 kts | 267° |
| 2026-05-04 18:19 | 52.04336 | -28.88358 | 36367 ft | 443 kts | 267° |
| 2026-05-04 18:20 | 52.03995 | -28.98348 | 36367 ft | 443 kts | 267° |
| 2026-05-04 18:20 | 52.03645 | -29.08360 | 36368 ft | 444 kts | 267° |
| 2026-05-04 18:21 | 52.03288 | -29.18313 | 36367 ft | 444 kts | 267° |
| 2026-05-04 18:21 | 52.02919 | -29.28347 | 36367 ft | 444 kts | 267° |
| 2026-05-04 18:22 | 52.02541 | -29.38356 | 36368 ft | 444 kts | 267° |
| 2026-05-04 18:22 | 52.02154 | -29.48375 | 36367 ft | 443 kts | 266° |
| 2026-05-04 18:23 | 52.01759 | -29.58375 | 36367 ft | 444 kts | 266° |
| 2026-05-04 18:23 | 52.01354 | -29.68376 | 36368 ft | 444 kts | 266° |
| 2026-05-04 18:24 | 52.00938 | -29.78399 | 36368 ft | 445 kts | 266° |
| 2026-05-04 18:24 | 52.00514 | -29.88370 | 36368 ft | 445 kts | 266° |
| 2026-05-04 18:25 | 52.00097 | -29.98390 | 36365 ft | 445 kts | 268° |
| 2026-05-04 18:25 | 52.00267 | -30.08437 | 36369 ft | 444 kts | 273° |
| 2026-05-04 18:26 | 52.00657 | -30.18387 | 36368 ft | 444 kts | 274° |
| 2026-05-04 18:26 | 52.01065 | -30.28404 | 36368 ft | 444 kts | 274° |
| 2026-05-04 18:27 | 52.01468 | -30.38426 | 36368 ft | 444 kts | 274° |
| 2026-05-04 18:27 | 52.01860 | -30.48390 | 36369 ft | 444 kts | 274° |
| 2026-05-04 18:28 | 52.02245 | -30.58395 | 36374 ft | 444 kts | 274° |
| 2026-05-04 18:28 | 52.02623 | -30.68416 | 36375 ft | 444 kts | 274° |
| 2026-05-04 18:29 | 52.02989 | -30.78392 | 36375 ft | 444 kts | 274° |
| 2026-05-04 18:29 | 52.03349 | -30.88409 | 36375 ft | 444 kts | 274° |
| 2026-05-04 18:30 | 52.03816 | -31.01781 | 36376 ft | 444 kts | 274° |
| 2026-05-04 18:31 | 52.04156 | -31.11807 | 36375 ft | 444 kts | 274° |
| 2026-05-04 18:31 | 52.04487 | -31.21843 | 36323 ft | 444 kts | 274° |
| 2026-05-04 18:32 | 52.04810 | -31.31860 | 36211 ft | 444 kts | 274° |
| 2026-05-04 18:32 | 52.05122 | -31.41832 | 36184 ft | 444 kts | 274° |
| 2026-05-04 18:33 | 52.05427 | -31.51831 | 36180 ft | 444 kts | 274° |
| 2026-05-04 18:33 | 52.05724 | -31.61858 | 36179 ft | 444 kts | 274° |
| 2026-05-04 18:34 | 52.06012 | -31.71886 | 36178 ft | 443 kts | 274° |
| 2026-05-04 18:34 | 52.06291 | -31.81891 | 36176 ft | 443 kts | 274° |
| 2026-05-04 18:35 | 52.06562 | -31.91910 | 36175 ft | 443 kts | 274° |
| 2026-05-04 18:35 | 52.06823 | -32.01861 | 36174 ft | 443 kts | 274° |
| 2026-05-04 18:36 | 52.07076 | -32.11852 | 36173 ft | 443 kts | 274° |
| 2026-05-04 18:36 | 52.07322 | -32.21886 | 36171 ft | 443 kts | 274° |
| 2026-05-04 18:37 | 52.07558 | -32.31908 | 36169 ft | 443 kts | 273° |
| 2026-05-04 18:37 | 52.07785 | -32.41891 | 36168 ft | 443 kts | 274° |
| 2026-05-04 18:38 | 52.08004 | -32.51908 | 36167 ft | 442 kts | 274° |
| 2026-05-04 18:38 | 52.08212 | -32.61832 | 36164 ft | 441 kts | 274° |
| 2026-05-04 18:39 | 52.08413 | -32.71810 | 36164 ft | 441 kts | 274° |
| 2026-05-04 18:39 | 52.08605 | -32.81781 | 36161 ft | 439 kts | 274° |
| 2026-05-04 18:40 | 52.08787 | -32.91691 | 36160 ft | 438 kts | 274° |
| 2026-05-04 18:40 | 52.08960 | -33.01582 | 36158 ft | 437 kts | 275° |
| 2026-05-04 18:41 | 52.09124 | -33.11457 | 36157 ft | 435 kts | 275° |
| 2026-05-04 18:41 | 52.09278 | -33.21225 | 36155 ft | 434 kts | 275° |
| 2026-05-04 18:42 | 52.09425 | -33.31013 | 36153 ft | 432 kts | 275° |
| 2026-05-04 18:42 | 52.09562 | -33.40772 | 36151 ft | 430 kts | 276° |
| 2026-05-04 18:43 | 52.09691 | -33.50500 | 36150 ft | 429 kts | 276° |
| 2026-05-04 18:43 | 52.09811 | -33.60124 | 36147 ft | 427 kts | 276° |
| 2026-05-04 18:44 | 52.09924 | -33.69794 | 36146 ft | 426 kts | 276° |
| 2026-05-04 18:44 | 52.10028 | -33.79409 | 36144 ft | 425 kts | 276° |
| 2026-05-04 18:45 | 52.10125 | -33.89019 | 36142 ft | 425 kts | 276° |
| 2026-05-04 18:45 | 52.10214 | -33.98637 | 36141 ft | 424 kts | 276° |
| 2026-05-04 18:46 | 52.10296 | -34.08233 | 36139 ft | 424 kts | 276° |
| 2026-05-04 18:46 | 52.10369 | -34.17830 | 36137 ft | 424 kts | 276° |
| 2026-05-04 18:47 | 52.10435 | -34.27347 | 36135 ft | 424 kts | 276° |
| 2026-05-04 18:47 | 52.10494 | -34.36965 | 36134 ft | 424 kts | 276° |
| 2026-05-04 18:48 | 52.10544 | -34.46563 | 36132 ft | 424 kts | 276° |
| 2026-05-04 18:48 | 52.10587 | -34.56182 | 36130 ft | 424 kts | 276° |
| 2026-05-04 18:49 | 52.10621 | -34.65798 | 36128 ft | 424 kts | 276° |
| 2026-05-04 18:49 | 52.10648 | -34.75334 | 36126 ft | 424 kts | 276° |
| 2026-05-04 18:50 | 52.10666 | -34.84924 | 36123 ft | 423 kts | 275° |
| 2026-05-04 18:50 | 52.10676 | -34.94488 | 36121 ft | 422 kts | 275° |
| 2026-05-04 18:51 | 52.10678 | -35.04032 | 36120 ft | 421 kts | 275° |
| 2026-05-04 18:51 | 52.10672 | -35.13535 | 36117 ft | 419 kts | 275° |
| 2026-05-04 18:52 | 52.10658 | -35.23007 | 36115 ft | 418 kts | 276° |
| 2026-05-04 18:52 | 52.10636 | -35.32453 | 36112 ft | 416 kts | 276° |
| 2026-05-04 18:53 | 52.10607 | -35.41804 | 36067 ft | 415 kts | 276° |
| 2026-05-04 18:53 | 52.10571 | -35.51191 | 36055 ft | 413 kts | 276° |
| 2026-05-04 18:54 | 52.10527 | -35.60516 | 36052 ft | 412 kts | 276° |
| 2026-05-04 18:54 | 52.10477 | -35.69764 | 36050 ft | 410 kts | 276° |
| 2026-05-04 18:55 | 52.10419 | -35.79044 | 36048 ft | 410 kts | 276° |
| 2026-05-04 18:55 | 52.10319 | -35.92940 | 36046 ft | 409 kts | 276° |
| 2026-05-04 18:56 | 52.10243 | -36.02207 | 36044 ft | 408 kts | 276° |
| 2026-05-04 18:56 | 52.10162 | -36.11389 | 36043 ft | 408 kts | 276° |
| 2026-05-04 18:57 | 52.10072 | -36.20636 | 36040 ft | 408 kts | 276° |
| 2026-05-04 18:57 | 52.09976 | -36.29892 | 36039 ft | 409 kts | 276° |
| 2026-05-04 18:58 | 52.09872 | -36.39156 | 36038 ft | 410 kts | 275° |
| 2026-05-04 18:58 | 52.09761 | -36.48440 | 36036 ft | 410 kts | 275° |
| 2026-05-04 18:59 | 52.09643 | -36.57674 | 36033 ft | 411 kts | 275° |
| 2026-05-04 18:59 | 52.09518 | -36.66983 | 36032 ft | 412 kts | 275° |
| 2026-05-04 19:00 | 52.09384 | -36.76327 | 36030 ft | 413 kts | 275° |
| 2026-05-04 19:00 | 52.09242 | -36.85688 | 36028 ft | 414 kts | 274° |
| 2026-05-04 19:01 | 52.09092 | -36.95079 | 36026 ft | 415 kts | 274° |
| 2026-05-04 19:01 | 52.08935 | -37.04467 | 36024 ft | 416 kts | 274° |
| 2026-05-04 19:02 | 52.08770 | -37.13843 | 36023 ft | 417 kts | 274° |
| 2026-05-04 19:02 | 52.08597 | -37.23282 | 36043 ft | 418 kts | 273° |
| 2026-05-04 19:03 | 52.08415 | -37.32751 | 36046 ft | 418 kts | 273° |
| 2026-05-04 19:03 | 52.08226 | -37.42162 | 36044 ft | 418 kts | 272° |
| 2026-05-04 19:04 | 52.08028 | -37.51636 | 36041 ft | 419 kts | 272° |
| 2026-05-04 19:04 | 52.07822 | -37.61122 | 36041 ft | 419 kts | 272° |
| 2026-05-04 19:05 | 52.07608 | -37.70601 | 36038 ft | 419 kts | 272° |
| 2026-05-04 19:05 | 52.07386 | -37.80077 | 36036 ft | 420 kts | 272° |
| 2026-05-04 19:06 | 52.07156 | -37.89558 | 36034 ft | 419 kts | 272° |
| 2026-05-04 19:06 | 52.06920 | -37.98973 | 36032 ft | 419 kts | 272° |
| 2026-05-04 19:07 | 52.06675 | -38.08453 | 36030 ft | 419 kts | 272° |
| 2026-05-04 19:07 | 52.06421 | -38.17937 | 36028 ft | 419 kts | 272° |
| 2026-05-04 19:08 | 52.06160 | -38.27413 | 36026 ft | 419 kts | 271° |
| 2026-05-04 19:08 | 52.05892 | -38.36886 | 36024 ft | 420 kts | 271° |
| 2026-05-04 19:09 | 52.05617 | -38.46319 | 36021 ft | 420 kts | 271° |
| 2026-05-04 19:09 | 52.05332 | -38.55802 | 36020 ft | 420 kts | 271° |
| 2026-05-04 19:10 | 52.05040 | -38.65299 | 36019 ft | 420 kts | 271° |
| 2026-05-04 19:10 | 52.04739 | -38.74793 | 36015 ft | 420 kts | 271° |
| 2026-05-04 19:11 | 52.04484 | -38.82685 | 36014 ft | 421 kts | 270° |
| 2026-05-04 19:11 | 52.04116 | -38.93736 | 36011 ft | 421 kts | 270° |
| 2026-05-04 19:12 | 52.03681 | -39.06435 | 36008 ft | 421 kts | 270° |
| 2026-05-04 19:13 | 52.03347 | -39.15877 | 36005 ft | 421 kts | 269° |
| 2026-05-04 19:13 | 52.03003 | -39.25411 | 36004 ft | 421 kts | 269° |
| 2026-05-04 19:14 | 52.02652 | -39.34894 | 36001 ft | 421 kts | 269° |
| 2026-05-04 19:14 | 52.02291 | -39.44400 | 35998 ft | 421 kts | 268° |
| 2026-05-04 19:15 | 52.01923 | -39.53901 | 35996 ft | 422 kts | 268° |
| 2026-05-04 19:15 | 52.01547 | -39.63356 | 35994 ft | 422 kts | 268° |
| 2026-05-04 19:16 | 52.01160 | -39.72871 | 35992 ft | 422 kts | 268° |
| 2026-05-04 19:16 | 52.00765 | -39.82369 | 35989 ft | 422 kts | 267° |
| 2026-05-04 19:17 | 52.00360 | -39.91864 | 35987 ft | 422 kts | 267° |
| 2026-05-04 19:17 | 51.99931 | -40.01392 | 35985 ft | 422 kts | 266° |
| 2026-05-04 19:18 | 51.99420 | -40.10844 | 35983 ft | 423 kts | 266° |
| 2026-05-04 19:18 | 51.98881 | -40.20358 | 35983 ft | 423 kts | 266° |
| 2026-05-04 19:19 | 51.98332 | -40.29869 | 35981 ft | 422 kts | 266° |
| 2026-05-04 19:19 | 51.97776 | -40.39370 | 35978 ft | 422 kts | 265° |
| 2026-05-04 19:20 | 51.97217 | -40.48789 | 35974 ft | 422 kts | 265° |
| 2026-05-04 19:20 | 51.96646 | -40.58269 | 35972 ft | 422 kts | 265° |
| 2026-05-04 19:21 | 51.96069 | -40.67740 | 35969 ft | 422 kts | 265° |
| 2026-05-04 19:21 | 51.95483 | -40.77218 | 35967 ft | 422 kts | 264° |
| 2026-05-04 19:22 | 51.94889 | -40.86708 | 35965 ft | 422 kts | 264° |
| 2026-05-04 19:22 | 51.94290 | -40.96163 | 35962 ft | 422 kts | 264° |
| 2026-05-04 19:23 | 51.93686 | -41.05561 | 35959 ft | 422 kts | 263° |
| 2026-05-04 19:23 | 51.93069 | -41.15052 | 35956 ft | 422 kts | 263° |
| 2026-05-04 19:24 | 51.92449 | -41.24460 | 35953 ft | 422 kts | 263° |
| 2026-05-04 19:24 | 51.91814 | -41.33976 | 35950 ft | 422 kts | 263° |
| 2026-05-04 19:25 | 51.91176 | -41.43418 | 35947 ft | 422 kts | 262° |
| 2026-05-04 19:25 | 51.90528 | -41.52881 | 35944 ft | 422 kts | 262° |
| 2026-05-04 19:26 | 51.89875 | -41.62321 | 35942 ft | 422 kts | 262° |
| 2026-05-04 19:26 | 51.89213 | -41.71769 | 35939 ft | 422 kts | 262° |
| 2026-05-04 19:27 | 51.88544 | -41.81193 | 35936 ft | 422 kts | 262° |
| 2026-05-04 19:27 | 51.87866 | -41.90645 | 35933 ft | 422 kts | 262° |
| 2026-05-04 19:28 | 51.87182 | -42.00065 | 35930 ft | 422 kts | 261° |
| 2026-05-04 19:28 | 51.86493 | -42.09458 | 35926 ft | 422 kts | 261° |
| 2026-05-04 19:29 | 51.85793 | -42.18891 | 35924 ft | 422 kts | 261° |
| 2026-05-04 19:29 | 51.85086 | -42.28314 | 35921 ft | 422 kts | 261° |
| 2026-05-04 19:30 | 51.84370 | -42.37744 | 35917 ft | 423 kts | 261° |
| 2026-05-04 19:30 | 51.83649 | -42.47144 | 35914 ft | 424 kts | 261° |
| 2026-05-04 19:31 | 51.82915 | -42.56605 | 35911 ft | 424 kts | 261° |
| 2026-05-04 19:31 | 51.82174 | -42.66070 | 35907 ft | 425 kts | 260° |
| 2026-05-04 19:32 | 51.81423 | -42.75555 | 35904 ft | 426 kts | 260° |
| 2026-05-04 19:32 | 51.80662 | -42.85057 | 35901 ft | 427 kts | 259° |
| 2026-05-04 19:33 | 51.79892 | -42.94593 | 35897 ft | 428 kts | 259° |
| 2026-05-04 19:33 | 51.79111 | -43.04151 | 35894 ft | 429 kts | 259° |
| 2026-05-04 19:34 | 51.78326 | -43.13656 | 35890 ft | 430 kts | 259° |
| 2026-05-04 19:34 | 51.77526 | -43.23245 | 35888 ft | 431 kts | 258° |
| 2026-05-04 19:35 | 51.76714 | -43.32884 | 35884 ft | 432 kts | 258° |
| 2026-05-04 19:35 | 51.75894 | -43.42515 | 35880 ft | 433 kts | 258° |
| 2026-05-04 19:36 | 51.75069 | -43.52115 | 35878 ft | 434 kts | 258° |
| 2026-05-04 19:36 | 51.74231 | -43.61766 | 35873 ft | 434 kts | 257° |
| 2026-05-04 19:37 | 51.73384 | -43.71424 | 35870 ft | 435 kts | 258° |
| 2026-05-04 19:37 | 51.72528 | -43.81084 | 35866 ft | 436 kts | 257° |
| 2026-05-04 19:38 | 51.71662 | -43.90774 | 35862 ft | 436 kts | 257° |
| 2026-05-04 19:38 | 51.70789 | -44.00442 | 35859 ft | 436 kts | 257° |
| 2026-05-04 19:39 | 51.69908 | -44.10122 | 35855 ft | 437 kts | 257° |
| 2026-05-04 19:39 | 51.69017 | -44.19803 | 35851 ft | 437 kts | 257° |
| 2026-05-04 19:40 | 51.68118 | -44.29485 | 35847 ft | 437 kts | 257° |
| 2026-05-04 19:40 | 51.67210 | -44.39177 | 35843 ft | 437 kts | 256° |
| 2026-05-04 19:41 | 51.66295 | -44.48861 | 35839 ft | 438 kts | 256° |
| 2026-05-04 19:41 | 51.65371 | -44.58544 | 35835 ft | 438 kts | 256° |
| 2026-05-04 19:42 | 51.64434 | -44.68274 | 35832 ft | 439 kts | 256° |
| 2026-05-04 19:42 | 51.63489 | -44.77994 | 35827 ft | 440 kts | 255° |
| 2026-05-04 19:43 | 51.62532 | -44.87751 | 35823 ft | 441 kts | 255° |
| 2026-05-04 19:43 | 51.61572 | -44.97452 | 35820 ft | 442 kts | 255° |
| 2026-05-04 19:44 | 51.60594 | -45.07250 | 35815 ft | 443 kts | 255° |
| 2026-05-04 19:44 | 51.59605 | -45.17066 | 35811 ft | 444 kts | 254° |
| 2026-05-04 19:45 | 51.58608 | -45.26885 | 35807 ft | 445 kts | 254° |
| 2026-05-04 19:45 | 51.57597 | -45.36744 | 35803 ft | 447 kts | 254° |
| 2026-05-04 19:46 | 51.56583 | -45.46551 | 35792 ft | 448 kts | 253° |
| 2026-05-04 19:46 | 51.55550 | -45.56448 | 35687 ft | 449 kts | 253° |
| 2026-05-04 19:47 | 51.54505 | -45.66377 | 35558 ft | 450 kts | 253° |
| 2026-05-04 19:47 | 51.53458 | -45.76247 | 35522 ft | 451 kts | 253° |
| 2026-05-04 19:48 | 51.52392 | -45.86209 | 35517 ft | 452 kts | 253° |
| 2026-05-04 19:48 | 51.51318 | -45.96162 | 35513 ft | 452 kts | 253° |
| 2026-05-04 19:49 | 51.50237 | -46.06111 | 35509 ft | 453 kts | 253° |
| 2026-05-04 19:49 | 51.49139 | -46.16112 | 35507 ft | 455 kts | 252° |
| 2026-05-04 19:50 | 51.48043 | -46.26027 | 35503 ft | 455 kts | 252° |
| 2026-05-04 19:50 | 51.46928 | -46.36029 | 35500 ft | 455 kts | 252° |
| 2026-05-04 19:51 | 51.45805 | -46.46019 | 35497 ft | 455 kts | 252° |
| 2026-05-04 19:51 | 51.44670 | -46.56045 | 35494 ft | 456 kts | 252° |
| 2026-05-04 19:52 | 51.43524 | -46.66067 | 35490 ft | 457 kts | 252° |
| 2026-05-04 19:52 | 51.42375 | -46.76050 | 35487 ft | 457 kts | 251° |
| 2026-05-04 19:53 | 51.41209 | -46.86089 | 35484 ft | 458 kts | 251° |
| 2026-05-04 19:53 | 51.40232 | -46.94449 | 35481 ft | 459 kts | 251° |
| 2026-05-04 19:54 | 51.39048 | -47.04503 | 35478 ft | 459 kts | 251° |
| 2026-05-04 19:54 | 51.37854 | -47.14564 | 35475 ft | 460 kts | 251° |
| 2026-05-04 19:55 | 51.36647 | -47.24649 | 35471 ft | 461 kts | 250° |
| 2026-05-04 19:55 | 51.35429 | -47.34748 | 35468 ft | 462 kts | 250° |
| 2026-05-04 19:56 | 51.34209 | -47.44784 | 35466 ft | 463 kts | 250° |
| 2026-05-04 19:56 | 51.32969 | -47.54916 | 35463 ft | 464 kts | 250° |
| 2026-05-04 19:57 | 51.31719 | -47.65044 | 35459 ft | 464 kts | 250° |
| 2026-05-04 19:57 | 51.30460 | -47.75171 | 35456 ft | 465 kts | 250° |
| 2026-05-04 19:58 | 51.29188 | -47.85326 | 35454 ft | 465 kts | 250° |
| 2026-05-04 19:58 | 51.27918 | -47.95395 | 35450 ft | 465 kts | 250° |
| 2026-05-04 19:59 | 51.26626 | -48.05554 | 35446 ft | 467 kts | 249° |
| 2026-05-04 19:59 | 51.25318 | -48.15741 | 35445 ft | 471 kts | 249° |
| 2026-05-04 20:00 | 51.23996 | -48.25968 | 35442 ft | 472 kts | 249° |
| 2026-05-04 20:00 | 51.22664 | -48.36218 | 35439 ft | 472 kts | 249° |
| 2026-05-04 20:01 | 51.21318 | -48.46496 | 35436 ft | 472 kts | 249° |
| 2026-05-04 20:01 | 51.19966 | -48.56748 | 35433 ft | 472 kts | 249° |
| 2026-05-04 20:02 | 51.18605 | -48.66993 | 35430 ft | 473 kts | 249° |
| 2026-05-04 20:02 | 51.17237 | -48.77204 | 35428 ft | 473 kts | 249° |
| 2026-05-04 20:03 | 51.15855 | -48.87456 | 35425 ft | 474 kts | 248° |
| 2026-05-04 20:03 | 51.14463 | -48.97712 | 35421 ft | 474 kts | 248° |
| 2026-05-04 20:04 | 51.13058 | -49.07971 | 35419 ft | 476 kts | 248° |
| 2026-05-04 20:04 | 51.11632 | -49.18308 | 35416 ft | 477 kts | 248° |
| 2026-05-04 20:05 | 51.10202 | -49.28614 | 35414 ft | 477 kts | 248° |
| 2026-05-04 20:05 | 51.08769 | -49.38869 | 35411 ft | 477 kts | 248° |
| 2026-05-04 20:06 | 51.07320 | -49.49158 | 35409 ft | 478 kts | 248° |
| 2026-05-04 20:06 | 51.05856 | -49.59483 | 35406 ft | 478 kts | 248° |
| 2026-05-04 20:07 | 51.04377 | -49.69832 | 35403 ft | 480 kts | 248° |
| 2026-05-04 20:07 | 51.02888 | -49.80174 | 35401 ft | 480 kts | 247° |
| 2026-05-04 20:08 | 51.01398 | -49.90451 | 35395 ft | 480 kts | 247° |
| 2026-05-04 20:08 | 50.99794 | -50.00735 | 35392 ft | 476 kts | 243° |
| 2026-05-04 20:09 | 50.97620 | -50.10616 | 35389 ft | 472 kts | 240° |
| 2026-05-04 20:09 | 50.95300 | -50.20342 | 35386 ft | 471 kts | 239° |
| 2026-05-04 20:10 | 50.92969 | -50.29971 | 35385 ft | 470 kts | 239° |
| 2026-05-04 20:10 | 50.90618 | -50.39627 | 35383 ft | 469 kts | 239° |
| 2026-05-04 20:11 | 50.88255 | -50.49283 | 35381 ft | 469 kts | 239° |
| 2026-05-04 20:11 | 50.85898 | -50.58872 | 35379 ft | 470 kts | 239° |
| 2026-05-04 20:12 | 50.83515 | -50.68523 | 35377 ft | 470 kts | 239° |
| 2026-05-04 20:12 | 50.81128 | -50.78153 | 35376 ft | 470 kts | 239° |
| 2026-05-04 20:13 | 50.78740 | -50.87746 | 35374 ft | 469 kts | 239° |
| 2026-05-04 20:13 | 50.76341 | -50.97337 | 35372 ft | 469 kts | 239° |
| 2026-05-04 20:14 | 50.73927 | -51.06941 | 35371 ft | 470 kts | 239° |
| 2026-05-04 20:14 | 50.71507 | -51.16531 | 35369 ft | 470 kts | 239° |
| 2026-05-04 20:15 | 50.69097 | -51.26042 | 35367 ft | 469 kts | 239° |
| 2026-05-04 20:15 | 50.66664 | -51.35600 | 35340 ft | 470 kts | 239° |
| 2026-05-04 20:16 | 50.64223 | -51.45153 | 35330 ft | 470 kts | 239° |
| 2026-05-04 20:16 | 50.61774 | -51.54694 | 35328 ft | 470 kts | 240° |
| 2026-05-04 20:17 | 50.59318 | -51.64221 | 35325 ft | 470 kts | 240° |
| 2026-05-04 20:17 | 50.56844 | -51.73778 | 35323 ft | 469 kts | 240° |
| 2026-05-04 20:18 | 50.54376 | -51.83270 | 35327 ft | 470 kts | 240° |
| 2026-05-04 20:18 | 50.51909 | -51.92719 | 35327 ft | 469 kts | 240° |
| 2026-05-04 20:19 | 50.49332 | -52.02127 | 35326 ft | 468 kts | 237° |
| 2026-05-04 20:19 | 50.39014 | -52.31613 | 35261 ft | 463 kts | 234° |
| 2026-05-04 20:20 | 50.26561 | -52.67061 | 35197 ft | 465 kts | 234° |
| 2026-05-04 20:20 | 50.13960 | -53.02400 | 35246 ft | 467 kts | 234° |
| 2026-05-04 20:21 | 50.01245 | -53.37574 | 35240 ft | 469 kts | 234° |
| 2026-05-04 20:21 | 49.81894 | -53.90202 | 35229 ft | 469 kts | 234° |
| 2026-05-04 20:22 | 49.68804 | -54.25206 | 35221 ft | 469 kts | 234° |
| 2026-05-04 20:22 | 49.55681 | -54.59834 | 35215 ft | 467 kts | 235° |
| 2026-05-04 20:23 | 49.42462 | -54.94254 | 35198 ft | 466 kts | 235° |
| 2026-05-04 20:23 | 49.29187 | -55.28375 | 35197 ft | 465 kts | 236° |
| 2026-05-04 20:24 | 49.15909 | -55.62071 | 35220 ft | 465 kts | 236° |
| 2026-05-04 20:24 | 49.02461 | -55.95760 | 35228 ft | 464 kts | 236° |
| 2026-05-04 20:25 | 48.88910 | -56.29284 | 35243 ft | 464 kts | 236° |
| 2026-05-04 20:25 | 48.75287 | -56.62565 | 35245 ft | 463 kts | 236° |
| 2026-05-04 20:26 | 48.61626 | -56.95526 | 35250 ft | 461 kts | 236° |
| 2026-05-04 20:26 | 48.47981 | -57.28053 | 35259 ft | 461 kts | 236° |
| 2026-05-04 20:27 | 48.34188 | -57.60539 | 35286 ft | 458 kts | 237° |
| 2026-05-04 20:27 | 48.20403 | -57.92615 | 35313 ft | 456 kts | 237° |
| 2026-05-04 20:28 | 48.06631 | -58.24290 | 35342 ft | 456 kts | 237° |
| 2026-05-04 20:28 | 47.92698 | -58.55959 | 35370 ft | 454 kts | 237° |
| 2026-05-04 20:29 | 47.78750 | -58.87301 | 35398 ft | 452 kts | 237° |
| 2026-05-04 20:29 | 47.64794 | -59.18304 | 35425 ft | 452 kts | 237° |
| 2026-05-04 20:30 | 47.50786 | -59.49075 | 35453 ft | 452 kts | 236° |
| 2026-05-04 20:30 | 47.36650 | -59.79781 | 35498 ft | 452 kts | 236° |
| 2026-05-04 20:31 | 47.22422 | -60.10341 | 35520 ft | 451 kts | 236° |
| 2026-05-04 20:31 | 47.09405 | -60.38007 | 35535 ft | 448 kts | 236° |
| 2026-05-04 20:32 | 46.95290 | -60.67700 | 35538 ft | 446 kts | 236° |
| 2026-05-04 20:32 | 46.81048 | -60.97340 | 35540 ft | 444 kts | 236° |
| 2026-05-04 20:33 | 46.66768 | -61.26746 | 35545 ft | 444 kts | 236° |
| 2026-05-04 20:33 | 46.52437 | -61.55947 | 35560 ft | 442 kts | 236° |
| 2026-05-04 20:34 | 46.38104 | -61.84849 | 35578 ft | 440 kts | 236° |
| 2026-05-04 20:34 | 46.23836 | -62.13327 | 35593 ft | 439 kts | 235° |
| 2026-05-04 20:35 | 46.09388 | -62.41874 | 35605 ft | 439 kts | 235° |
| 2026-05-04 20:35 | 45.94893 | -62.70222 | 35605 ft | 438 kts | 235° |
| 2026-05-04 20:36 | 45.80439 | -62.98211 | 35611 ft | 435 kts | 235° |
| 2026-05-04 20:36 | 45.65970 | -63.25953 | 35633 ft | 435 kts | 235° |
| 2026-05-04 20:37 | 45.51383 | -63.53651 | 35659 ft | 436 kts | 234° |
| 2026-05-04 20:37 | 45.36805 | -63.81060 | 35684 ft | 435 kts | 234° |
| 2026-05-04 20:38 | 45.22132 | -64.08384 | 35699 ft | 435 kts | 234° |
| 2026-05-04 20:38 | 45.07433 | -64.35497 | 35717 ft | 432 kts | 234° |
| 2026-05-04 20:39 | 44.92746 | -64.62330 | 35743 ft | 430 kts | 234° |
| 2026-05-04 20:39 | 44.78067 | -64.88903 | 35749 ft | 428 kts | 234° |
| 2026-05-04 20:40 | 44.65856 | -65.10820 | 35754 ft | 427 kts | 234° |
| 2026-05-04 20:40 | 44.51157 | -65.36982 | 35765 ft | 427 kts | 234° |
| 2026-05-04 20:41 | 44.36461 | -65.62904 | 35786 ft | 425 kts | 234° |
| 2026-05-04 20:41 | 44.21723 | -65.88666 | 35813 ft | 423 kts | 234° |
| 2026-05-04 20:42 | 44.08493 | -66.11597 | 35830 ft | 422 kts | 233° |
| 2026-05-04 20:42 | 43.96872 | -66.31591 | 35834 ft | 422 kts | 233° |
| 2026-05-04 20:43 | 43.93477 | -66.37409 | 35834 ft | 422 kts | 233° |
| 2026-05-04 20:43 | 43.89806 | -66.43682 | 35834 ft | 421 kts | 233° |
| 2026-05-04 20:44 | 43.86108 | -66.49988 | 35833 ft | 421 kts | 233° |
| 2026-05-04 20:44 | 43.82410 | -66.56281 | 35832 ft | 421 kts | 233° |
| 2026-05-04 20:45 | 43.78706 | -66.62570 | 35833 ft | 421 kts | 233° |
| 2026-05-04 20:45 | 43.75007 | -66.68838 | 35832 ft | 421 kts | 233° |
| 2026-05-04 20:46 | 43.71300 | -66.75106 | 35831 ft | 421 kts | 233° |
| 2026-05-04 20:46 | 43.67588 | -66.81369 | 35832 ft | 420 kts | 233° |
| 2026-05-04 20:47 | 43.63879 | -66.87613 | 35832 ft | 420 kts | 233° |
| 2026-05-04 20:47 | 43.60169 | -66.93845 | 35831 ft | 421 kts | 233° |
| 2026-05-04 20:48 | 43.56643 | -67.00213 | 35827 ft | 420 kts | 240° |
| 2026-05-04 20:48 | 43.54185 | -67.07488 | 35831 ft | 418 kts | 249° |
| 2026-05-04 20:49 | 43.52237 | -67.15042 | 35827 ft | 419 kts | 250° |
| 2026-05-04 20:49 | 43.50194 | -67.22575 | 35825 ft | 419 kts | 249° |
| 2026-05-04 20:50 | 43.48073 | -67.30048 | 35822 ft | 419 kts | 249° |
| 2026-05-04 20:50 | 43.45948 | -67.37521 | 35819 ft | 419 kts | 249° |
| 2026-05-04 20:51 | 43.43825 | -67.45005 | 35818 ft | 420 kts | 249° |
| 2026-05-04 20:51 | 43.41707 | -67.52451 | 35817 ft | 420 kts | 249° |
| 2026-05-04 20:52 | 43.39573 | -67.59927 | 35815 ft | 420 kts | 249° |
| 2026-05-04 20:52 | 43.37427 | -67.67423 | 35815 ft | 421 kts | 249° |
| 2026-05-04 20:53 | 43.35291 | -67.74862 | 35814 ft | 421 kts | 249° |
| 2026-05-04 20:53 | 43.33139 | -67.82334 | 35813 ft | 420 kts | 249° |
| 2026-05-04 20:54 | 43.30982 | -67.89804 | 35813 ft | 420 kts | 248° |
| 2026-05-04 20:54 | 43.28816 | -67.97279 | 35812 ft | 421 kts | 248° |
| 2026-05-04 20:55 | 43.26649 | -68.04736 | 35813 ft | 422 kts | 249° |
| 2026-05-04 20:55 | 43.24467 | -68.12225 | 35814 ft | 422 kts | 248° |
| 2026-05-04 20:56 | 43.22288 | -68.19680 | 35814 ft | 422 kts | 248° |
| 2026-05-04 20:56 | 43.20107 | -68.27120 | 35808 ft | 422 kts | 248° |
| 2026-05-04 20:57 | 43.17909 | -68.34596 | 35807 ft | 422 kts | 248° |
| 2026-05-04 20:57 | 43.15709 | -68.42057 | 35798 ft | 422 kts | 248° |
| 2026-05-04 20:58 | 43.13506 | -68.49508 | 35792 ft | 422 kts | 248° |
| 2026-05-04 20:58 | 43.11308 | -68.56917 | 35792 ft | 422 kts | 248° |
| 2026-05-04 20:59 | 43.09091 | -68.64371 | 35793 ft | 422 kts | 248° |
| 2026-05-04 20:59 | 43.06872 | -68.71811 | 35795 ft | 422 kts | 248° |
| 2026-05-04 21:00 | 43.04646 | -68.79249 | 35797 ft | 423 kts | 248° |
| 2026-05-04 21:00 | 43.02430 | -68.86637 | 35800 ft | 423 kts | 248° |
| 2026-05-04 21:01 | 43.00189 | -68.94084 | 35802 ft | 423 kts | 248° |
| 2026-05-04 21:01 | 42.97949 | -69.01506 | 35805 ft | 423 kts | 248° |
| 2026-05-04 21:02 | 42.95700 | -69.08939 | 35807 ft | 423 kts | 248° |
| 2026-05-04 21:02 | 42.93458 | -69.16327 | 35807 ft | 423 kts | 248° |
| 2026-05-04 21:03 | 42.91199 | -69.23746 | 35809 ft | 424 kts | 248° |
| 2026-05-04 21:03 | 42.88928 | -69.31187 | 35812 ft | 424 kts | 248° |
| 2026-05-04 21:04 | 42.86669 | -69.38568 | 35815 ft | 423 kts | 248° |
| 2026-05-04 21:04 | 42.84392 | -69.45985 | 35818 ft | 424 kts | 248° |
| 2026-05-04 21:05 | 42.82108 | -69.53406 | 35816 ft | 424 kts | 248° |
| 2026-05-04 21:05 | 42.79813 | -69.60840 | 35812 ft | 424 kts | 248° |
| 2026-05-04 21:06 | 42.77519 | -69.68249 | 35815 ft | 424 kts | 248° |
| 2026-05-04 21:06 | 42.75239 | -69.75593 | 35818 ft | 424 kts | 248° |
| 2026-05-04 21:07 | 42.72937 | -69.82985 | 35822 ft | 424 kts | 248° |
| 2026-05-04 21:07 | 42.70629 | -69.90379 | 35819 ft | 424 kts | 248° |
| 2026-05-04 21:08 | 42.68316 | -69.97767 | 35820 ft | 424 kts | 248° |
| 2026-05-04 21:08 | 42.65993 | -70.05152 | 35831 ft | 425 kts | 248° |
| 2026-05-04 21:09 | 42.63661 | -70.12502 | 35840 ft | 426 kts | 248° |
| 2026-05-04 21:09 | 42.61308 | -70.19890 | 35843 ft | 426 kts | 248° |
| 2026-05-04 21:10 | 42.58946 | -70.27291 | 35835 ft | 426 kts | 248° |
| 2026-05-04 21:10 | 42.56582 | -70.34674 | 35830 ft | 427 kts | 248° |
| 2026-05-04 21:11 | 42.54208 | -70.42068 | 35827 ft | 427 kts | 248° |
| 2026-05-04 21:11 | 42.51828 | -70.49458 | 35824 ft | 428 kts | 248° |
| 2026-05-04 21:12 | 42.49441 | -70.56852 | 35820 ft | 428 kts | 248° |
| 2026-05-04 21:12 | 42.47068 | -70.64189 | 35815 ft | 428 kts | 248° |
| 2026-05-04 21:13 | 42.44673 | -70.71573 | 35808 ft | 428 kts | 248° |
| 2026-05-04 21:13 | 42.42276 | -70.78950 | 35804 ft | 429 kts | 248° |
| 2026-05-04 21:14 | 42.39861 | -70.86359 | 35804 ft | 430 kts | 248° |
| 2026-05-04 21:14 | 42.37438 | -70.93777 | 35804 ft | 430 kts | 248° |
| 2026-05-04 21:15 | 42.35168 | -71.01264 | 35804 ft | 431 kts | 252° |
| 2026-05-04 21:15 | 42.33291 | -71.08897 | 35804 ft | 430 kts | 254° |
| 2026-05-04 21:16 | 42.31454 | -71.16616 | 35803 ft | 431 kts | 254° |
| 2026-05-04 21:16 | 42.29613 | -71.24354 | 35804 ft | 432 kts | 254° |
| 2026-05-04 21:17 | 42.27781 | -71.32037 | 35804 ft | 432 kts | 254° |
| 2026-05-04 21:17 | 42.25929 | -71.39772 | 35804 ft | 433 kts | 254° |
| 2026-05-04 21:18 | 42.24070 | -71.47512 | 35782 ft | 434 kts | 254° |
| 2026-05-04 21:18 | 42.23131 | -71.51413 | 35242 ft | 437 kts | 254° |
| 2026-05-04 21:18 | 42.22187 | -71.55327 | 34485 ft | 439 kts | 255° |
| 2026-05-04 21:19 | 42.21238 | -71.59253 | 33770 ft | 439 kts | 255° |
| 2026-05-04 21:19 | 42.20301 | -71.63120 | 33083 ft | 439 kts | 255° |
| 2026-05-04 21:19 | 42.19339 | -71.67083 | 32384 ft | 439 kts | 255° |
| 2026-05-04 21:19 | 42.18397 | -71.70957 | 31698 ft | 441 kts | 256° |
| 2026-05-04 21:20 | 42.17439 | -71.74895 | 31006 ft | 443 kts | 256° |
| 2026-05-04 21:20 | 42.16475 | -71.78850 | 30363 ft | 444 kts | 256° |
| 2026-05-04 21:20 | 42.15512 | -71.82798 | 29721 ft | 443 kts | 256° |
| 2026-05-04 21:20 | 42.14551 | -71.86722 | 29076 ft | 439 kts | 256° |
| 2026-05-04 21:21 | 42.13597 | -71.90612 | 28438 ft | 434 kts | 256° |
| 2026-05-04 21:21 | 42.12655 | -71.94445 | 27806 ft | 430 kts | 256° |
| 2026-05-04 21:21 | 42.11717 | -71.98260 | 27181 ft | 426 kts | 255° |
| 2026-05-04 21:21 | 42.10786 | -72.02038 | 26561 ft | 422 kts | 255° |
| 2026-05-04 21:22 | 42.09860 | -72.05790 | 25944 ft | 419 kts | 255° |
| 2026-05-04 21:22 | 42.08943 | -72.09503 | 25337 ft | 417 kts | 255° |
| 2026-05-04 21:22 | 42.08030 | -72.13196 | 24734 ft | 415 kts | 255° |
| 2026-05-04 21:22 | 42.07131 | -72.16827 | 24140 ft | 412 kts | 255° |
| 2026-05-04 21:23 | 42.06227 | -72.20476 | 23545 ft | 409 kts | 254° |
| 2026-05-04 21:23 | 42.05325 | -72.24100 | 22960 ft | 406 kts | 255° |
| 2026-05-04 21:23 | 42.04434 | -72.27680 | 22386 ft | 402 kts | 254° |
| 2026-05-04 21:23 | 42.03551 | -72.31220 | 21819 ft | 398 kts | 255° |
| 2026-05-04 21:24 | 42.02676 | -72.34724 | 21257 ft | 393 kts | 255° |
| 2026-05-04 21:24 | 42.01806 | -72.38203 | 20694 ft | 389 kts | 254° |
| 2026-05-04 21:24 | 42.00945 | -72.41641 | 20138 ft | 386 kts | 255° |
| 2026-05-04 21:24 | 42.00092 | -72.45042 | 19591 ft | 382 kts | 255° |
| 2026-05-04 21:25 | 41.99247 | -72.48409 | 19049 ft | 378 kts | 254° |
| 2026-05-04 21:25 | 41.98692 | -72.50620 | 18693 ft | 375 kts | 254° |
| 2026-05-04 21:25 | 41.97591 | -72.55000 | 17987 ft | 371 kts | 254° |
| 2026-05-04 21:25 | 41.96767 | -72.58270 | 17459 ft | 367 kts | 254° |
| 2026-05-04 21:26 | 41.95951 | -72.61510 | 16936 ft | 364 kts | 254° |
| 2026-05-04 21:26 | 41.95142 | -72.64722 | 16417 ft | 362 kts | 254° |
| 2026-05-04 21:26 | 41.94607 | -72.66842 | 16167 ft | 359 kts | 254° |
| 2026-05-04 21:26 | 41.93812 | -72.70036 | 16044 ft | 360 kts | 255° |
| 2026-05-04 21:27 | 41.93048 | -72.73225 | 16008 ft | 360 kts | 255° |
| 2026-05-04 21:27 | 41.92293 | -72.76432 | 15982 ft | 360 kts | 255° |
| 2026-05-04 21:27 | 41.91536 | -72.79645 | 15473 ft | 359 kts | 255° |
| 2026-05-04 21:27 | 41.90783 | -72.82806 | 15280 ft | 355 kts | 255° |
| 2026-05-04 21:28 | 41.90033 | -72.85950 | 15160 ft | 354 kts | 255° |
| 2026-05-04 21:28 | 41.89277 | -72.89111 | 15005 ft | 354 kts | 255° |
| 2026-05-04 21:28 | 41.88527 | -72.92240 | 14851 ft | 353 kts | 255° |
| 2026-05-04 21:28 | 41.87774 | -72.95382 | 14697 ft | 351 kts | 255° |
| 2026-05-04 21:29 | 41.87025 | -72.98504 | 14545 ft | 351 kts | 255° |
| 2026-05-04 21:29 | 41.86272 | -73.01631 | 14391 ft | 352 kts | 255° |
| 2026-05-04 21:29 | 41.85527 | -73.04726 | 14237 ft | 351 kts | 255° |
| 2026-05-04 21:29 | 41.84777 | -73.07842 | 14084 ft | 350 kts | 254° |
| 2026-05-04 21:30 | 41.84029 | -73.10940 | 13932 ft | 349 kts | 254° |
| 2026-05-04 21:30 | 41.83283 | -73.14029 | 13780 ft | 348 kts | 254° |
| 2026-05-04 21:30 | 41.82537 | -73.17107 | 13625 ft | 348 kts | 254° |
| 2026-05-04 21:30 | 41.81788 | -73.20201 | 13469 ft | 347 kts | 254° |
| 2026-05-04 21:31 | 41.80297 | -73.26340 | 13183 ft | 346 kts | 254° |
| 2026-05-04 21:31 | 41.79555 | -73.29391 | 13035 ft | 345 kts | 254° |
| 2026-05-04 21:31 | 41.78805 | -73.32465 | 12883 ft | 345 kts | 254° |
| 2026-05-04 21:32 | 41.78062 | -73.35514 | 12732 ft | 344 kts | 254° |
| 2026-05-04 21:32 | 41.77316 | -73.38574 | 12580 ft | 344 kts | 254° |
| 2026-05-04 21:32 | 41.76572 | -73.41614 | 12431 ft | 344 kts | 254° |
| 2026-05-04 21:32 | 41.75827 | -73.44654 | 12280 ft | 342 kts | 254° |
| 2026-05-04 21:33 | 41.75090 | -73.47660 | 12134 ft | 345 kts | 254° |
| 2026-05-04 21:33 | 41.74340 | -73.50712 | 11974 ft | 345 kts | 254° |
| 2026-05-04 21:33 | 41.73592 | -73.53749 | 11805 ft | 344 kts | 254° |
| 2026-05-04 21:33 | 41.72845 | -73.56792 | 11656 ft | 343 kts | 254° |
| 2026-05-04 21:34 | 41.72101 | -73.59811 | 11501 ft | 339 kts | 253° |
| 2026-05-04 21:34 | 41.71361 | -73.62804 | 11353 ft | 339 kts | 253° |
| 2026-05-04 21:34 | 41.70621 | -73.65800 | 11205 ft | 339 kts | 253° |
| 2026-05-04 21:34 | 41.69878 | -73.68804 | 11055 ft | 338 kts | 253° |
| 2026-05-04 21:35 | 41.69147 | -73.71752 | 10907 ft | 338 kts | 253° |
| 2026-05-04 21:35 | 41.68407 | -73.74737 | 10760 ft | 338 kts | 253° |
| 2026-05-04 21:35 | 41.67668 | -73.77712 | 10609 ft | 337 kts | 253° |
| 2026-05-04 21:35 | 41.66926 | -73.80697 | 10460 ft | 337 kts | 252° |
| 2026-05-04 21:36 | 41.66207 | -73.83628 | 10404 ft | 336 kts | 253° |
| 2026-05-04 21:36 | 41.65492 | -73.86644 | 10402 ft | 336 kts | 253° |
| 2026-05-04 21:36 | 41.64796 | -73.89618 | 10401 ft | 336 kts | 253° |
| 2026-05-04 21:36 | 41.64093 | -73.92610 | 10401 ft | 336 kts | 253° |
| 2026-05-04 21:37 | 41.63398 | -73.95548 | 10401 ft | 336 kts | 253° |
| 2026-05-04 21:37 | 41.62678 | -73.98585 | 10402 ft | 337 kts | 253° |
| 2026-05-04 21:37 | 41.61985 | -74.01497 | 10393 ft | 325 kts | 253° |
| 2026-05-04 21:37 | 41.61316 | -74.04310 | 10383 ft | 309 kts | 253° |
| 2026-05-04 21:38 | 41.60681 | -74.06974 | 10369 ft | 293 kts | 253° |
| 2026-05-04 21:38 | 41.60078 | -74.09507 | 10347 ft | 279 kts | 253° |
| 2026-05-04 21:38 | 41.59502 | -74.11923 | 10273 ft | 267 kts | 253° |
| 2026-05-04 21:38 | 41.58948 | -74.14252 | 10187 ft | 260 kts | 253° |
| 2026-05-04 21:39 | 41.58396 | -74.16558 | 10106 ft | 261 kts | 253° |
| 2026-05-04 21:39 | 41.57842 | -74.18878 | 10018 ft | 260 kts | 253° |
| 2026-05-04 21:39 | 41.57292 | -74.21174 | 9888 ft | 261 kts | 253° |
| 2026-05-04 21:39 | 41.56737 | -74.23493 | 9551 ft | 262 kts | 253° |
| 2026-05-04 21:40 | 41.56182 | -74.25808 | 9139 ft | 264 kts | 252° |
| 2026-05-04 21:40 | 41.55616 | -74.28164 | 8716 ft | 266 kts | 252° |
| 2026-05-04 21:40 | 41.55041 | -74.30523 | 8285 ft | 268 kts | 251° |
| 2026-05-04 21:40 | 41.54112 | -74.32663 | 7600 ft | 275 kts | 232° |
| 2026-05-04 21:41 | 41.52617 | -74.34278 | 7200 ft | 279 kts | 210° |
| 2026-05-04 21:41 | 41.50819 | -74.35163 | 7085 ft | 272 kts | 199° |
| 2026-05-04 21:41 | 41.49018 | -74.35782 | 7028 ft | 267 kts | 198° |
| 2026-05-04 21:41 | 41.47221 | -74.36462 | 7018 ft | 268 kts | 201° |
| 2026-05-04 21:42 | 41.45452 | -74.37224 | 7015 ft | 268 kts | 202° |
| 2026-05-04 21:42 | 41.43677 | -74.38012 | 7014 ft | 268 kts | 202° |
| 2026-05-04 21:42 | 41.41906 | -74.38786 | 7011 ft | 267 kts | 201° |
| 2026-05-04 21:42 | 41.40136 | -74.39544 | 7015 ft | 268 kts | 201° |
| 2026-05-04 21:43 | 41.38356 | -74.40308 | 7018 ft | 268 kts | 201° |
| 2026-05-04 21:43 | 41.36585 | -74.41069 | 7015 ft | 268 kts | 201° |
| 2026-05-04 21:43 | 41.34806 | -74.41833 | 7016 ft | 268 kts | 201° |
| 2026-05-04 21:43 | 41.33031 | -74.42596 | 7018 ft | 269 kts | 201° |
| 2026-05-04 21:44 | 41.31266 | -74.43355 | 7022 ft | 268 kts | 201° |
| 2026-05-04 21:44 | 41.29492 | -74.44117 | 7018 ft | 267 kts | 201° |
| 2026-05-04 21:44 | 41.27722 | -74.44876 | 7022 ft | 268 kts | 201° |
| 2026-05-04 21:44 | 41.25942 | -74.45636 | 7020 ft | 269 kts | 201° |
| 2026-05-04 21:45 | 41.24162 | -74.46400 | 7025 ft | 269 kts | 201° |
| 2026-05-04 21:45 | 41.22376 | -74.47165 | 7021 ft | 268 kts | 201° |
| 2026-05-04 21:45 | 41.20602 | -74.47922 | 7021 ft | 268 kts | 201° |
| 2026-05-04 21:45 | 41.18821 | -74.48683 | 7027 ft | 270 kts | 201° |
| 2026-05-04 21:46 | 41.17025 | -74.49451 | 7029 ft | 271 kts | 201° |
| 2026-05-04 21:46 | 41.15252 | -74.50207 | 7024 ft | 269 kts | 201° |
| 2026-05-04 21:46 | 41.13754 | -74.50846 | 7023 ft | 268 kts | 201° |
| 2026-05-04 21:46 | 41.11979 | -74.51602 | 7026 ft | 268 kts | 201° |
| 2026-05-04 21:47 | 41.10200 | -74.52362 | 7028 ft | 269 kts | 201° |
| 2026-05-04 21:47 | 41.08414 | -74.53123 | 7030 ft | 271 kts | 201° |
| 2026-05-04 21:47 | 41.06601 | -74.53820 | 7022 ft | 271 kts | 196° |
| 2026-05-04 21:47 | 41.04730 | -74.54147 | 7032 ft | 272 kts | 188° |
| 2026-05-04 21:48 | 41.02842 | -74.54257 | 7032 ft | 272 kts | 186° |
| 2026-05-04 21:48 | 41.00973 | -74.54362 | 7031 ft | 272 kts | 187° |
| 2026-05-04 21:48 | 40.99076 | -74.54523 | 7034 ft | 273 kts | 188° |
| 2026-05-04 21:48 | 40.97185 | -74.54706 | 7019 ft | 273 kts | 187° |
| 2026-05-04 21:49 | 40.95296 | -74.54410 | 6941 ft | 276 kts | 166° |
| 2026-05-04 21:49 | 40.93934 | -74.53426 | 6737 ft | 280 kts | 145° |
| 2026-05-04 21:49 | 40.92703 | -74.51420 | 6418 ft | 286 kts | 120° |
| 2026-05-04 21:49 | 40.92206 | -74.48888 | 6163 ft | 287 kts | 95° |
| 2026-05-04 21:50 | 40.92235 | -74.46238 | 6078 ft | 290 kts | 88° |
| 2026-05-04 21:50 | 40.92365 | -74.43579 | 5987 ft | 288 kts | 87° |
| 2026-05-04 21:50 | 40.92509 | -74.40957 | 5665 ft | 288 kts | 87° |
| 2026-05-04 21:50 | 40.92625 | -74.38853 | 5420 ft | 287 kts | 87° |
| 2026-05-04 21:51 | 40.92773 | -74.36220 | 5171 ft | 285 kts | 87° |
| 2026-05-04 21:51 | 40.92921 | -74.33635 | 5042 ft | 278 kts | 87° |
| 2026-05-04 21:51 | 40.93043 | -74.31536 | 5006 ft | 268 kts | 87° |
| 2026-05-04 21:51 | 40.93185 | -74.29161 | 5036 ft | 249 kts | 87° |
| 2026-05-04 21:52 | 40.93321 | -74.26929 | 4462 ft | 243 kts | 87° |
| 2026-05-04 21:52 | 40.93460 | -74.24683 | 4130 ft | 247 kts | 87° |
| 2026-05-04 21:52 | 40.93600 | -74.22422 | 4042 ft | 248 kts | 87° |
| 2026-05-04 21:52 | 40.93741 | -74.20136 | 4013 ft | 248 kts | 86° |
| 2026-05-04 21:53 | 40.93883 | -74.17869 | 4012 ft | 247 kts | 87° |
| 2026-05-04 21:53 | 40.94028 | -74.15595 | 4002 ft | 248 kts | 87° |
| 2026-05-04 21:53 | 40.94093 | -74.13756 | 3974 ft | 248 kts | 95° |
| 2026-05-04 21:53 | 40.93563 | -74.11622 | 3978 ft | 244 kts | 126° |
| 2026-05-04 21:54 | 40.92539 | -74.09889 | 3879 ft | 235 kts | 135° |
| 2026-05-04 21:54 | 40.91450 | -74.08280 | 3597 ft | 234 kts | 136° |
| 2026-05-04 21:54 | 40.90360 | -74.06697 | 3295 ft | 233 kts | 137° |
| 2026-05-04 21:54 | 40.89215 | -74.05207 | 3053 ft | 227 kts | 149° |
| 2026-05-04 21:55 | 40.87789 | -74.04561 | 2986 ft | 210 kts | 181° |
| 2026-05-04 21:55 | 40.86464 | -74.04998 | 2979 ft | 187 kts | 213° |
| 2026-05-04 21:55 | 40.85419 | -74.05897 | 3074 ft | 179 kts | 214° |
| 2026-05-04 21:55 | 40.84333 | -74.06725 | 3031 ft | 181 kts | 212° |
| 2026-05-04 21:56 | 40.83218 | -74.07503 | 2950 ft | 181 kts | 210° |
| 2026-05-04 21:56 | 40.82095 | -74.08254 | 2704 ft | 178 kts | 210° |
| 2026-05-04 21:56 | 40.81001 | -74.08968 | 2442 ft | 172 kts | 209° |
| 2026-05-04 21:56 | 40.79961 | -74.09641 | 2212 ft | 165 kts | 208° |
| 2026-05-04 21:57 | 40.78937 | -74.10298 | 1990 ft | 158 kts | 208° |
| 2026-05-04 21:57 | 40.77978 | -74.10912 | 1776 ft | 147 kts | 208° |
| 2026-05-04 21:57 | 40.77121 | -74.11459 | 1618 ft | 131 kts | 209° |
| 2026-05-04 21:57 | 40.76293 | -74.11987 | 1433 ft | 132 kts | 210° |
| 2026-05-04 21:58 | 40.75468 | -74.12527 | 1256 ft | 133 kts | 210° |
| 2026-05-04 21:58 | 40.74640 | -74.13071 | 1043 ft | 134 kts | 208° |
| 2026-05-04 21:58 | 40.73799 | -74.13574 | 877 ft | 133 kts | 207° |
| 2026-05-04 21:58 | 40.72938 | -74.14077 | 749 ft | 138 kts | 206° |
| 2026-05-04 21:59 | 40.72084 | -74.14615 | 611 ft | 138 kts | 211° |
| 2026-05-04 21:59 | 40.71253 | -74.15207 | 395 ft | 132 kts | 211° |
| 2026-05-04 21:59 | 40.70451 | -74.15734 | 179 ft | 127 kts | 210° |
| 2026-05-04 21:59 | 40.69663 | -74.16213 | 49 ft | 120 kts | 210° |
| 2026-05-04 22:00 | 40.69016 | -74.16631 | 33 ft | 74 kts | 200° |
| 2026-05-04 22:00 | 40.68682 | -74.16833 | 33 ft | 37 kts | 205° |
| 2026-05-04 22:00 | 40.68549 | -74.16967 | 33 ft | 21 kts | 231° |
| 2026-05-04 22:00 | 40.68490 | -74.17086 | 33 ft | 8 kts | 236° |
| 2026-05-04 22:01 | 40.68462 | -74.17141 | 33 ft | 6 kts | 236° |
| 2026-05-04 22:01 | 40.68446 | -74.17180 | 33 ft | 4 kts | 252° |
| 2026-05-04 22:01 | 40.68445 | -74.17226 | 33 ft | 8 kts | 278° |
| 2026-05-04 22:01 | 40.68481 | -74.17345 | 33 ft | 20 kts | 294° |
| 2026-05-04 22:02 | 40.68560 | -74.17501 | 33 ft | 20 kts | 337° |
| 2026-05-04 22:02 | 40.68714 | -74.17478 | 33 ft | 29 kts | 26° |
| 2026-05-04 22:02 | 40.68868 | -74.17381 | 33 ft | 20 kts | 26° |
| 2026-05-04 22:02 | 40.68995 | -74.17298 | 33 ft | 20 kts | 25° |
| 2026-05-04 22:03 | 40.69114 | -74.17223 | 33 ft | 18 kts | 25° |
| 2026-05-04 22:03 | 40.69221 | -74.17155 | 33 ft | 16 kts | 26° |
| 2026-05-04 22:03 | 40.69333 | -74.17089 | 33 ft | 22 kts | 16° |
| 2026-05-04 22:03 | 40.69518 | -74.17077 | 33 ft | 30 kts | 348° |
| 2026-05-04 22:04 | 40.69707 | -74.17173 | 33 ft | 28 kts | 327° |
| 2026-05-04 22:04 | 40.69839 | -74.17337 | 33 ft | 25 kts | 309° |
| 2026-05-04 22:04 | 40.69901 | -74.17528 | 33 ft | 22 kts | 278° |
| 2026-05-04 22:04 | 40.69929 | -74.17673 | 33 ft | 11 kts | 311° |
| 2026-05-04 22:05 | 40.69938 | -74.17715 | 33 ft | 2 kts | 247° |
| 2026-05-04 22:05 | 40.69929 | -74.17739 | 33 ft | 6 kts | 241° |
| 2026-05-04 22:05 | 40.69910 | -74.17793 | 33 ft | 5 kts | 249° |
| 2026-05-04 22:05 | 40.69905 | -74.17809 | 33 ft | 0 kts | 244° |